createdAt,value
2022-09-25T00:00:13.418Z,1014.72
2022-09-25T00:01:13.636Z,1014.73
2022-09-25T00:02:13.778Z,1014.67
2022-09-25T00:03:13.923Z,1014.71
2022-09-25T00:04:14.083Z,1014.70
2022-09-25T00:05:14.284Z,1014.70
2022-09-25T00:06:14.452Z,1014.68
2022-09-25T00:07:14.612Z,1014.67
2022-09-25T00:08:14.776Z,1014.68
2022-09-25T00:09:14.944Z,1014.65
2022-09-25T00:10:15.098Z,1014.64
2022-09-25T00:11:15.303Z,1014.67
2022-09-25T00:12:15.471Z,1014.66
2022-09-25T00:13:15.633Z,1014.67
2022-09-25T00:14:15.793Z,1014.65
2022-09-25T00:15:16.066Z,1014.63
2022-09-25T00:16:16.153Z,1014.65
2022-09-25T00:17:16.281Z,1014.64
2022-09-25T00:18:16.445Z,1014.62
2022-09-25T00:19:16.617Z,1014.62
2022-09-25T00:20:16.763Z,1014.59
2022-09-25T00:21:16.989Z,1014.60
2022-09-25T00:22:17.134Z,1014.58
2022-09-25T00:23:17.333Z,1014.57
2022-09-25T00:24:17.484Z,1014.57
2022-09-25T00:25:17.701Z,1014.58
2022-09-25T00:26:17.863Z,1014.56
2022-09-25T00:27:18.024Z,1014.50
2022-09-25T00:28:18.427Z,1014.51
2022-09-25T00:29:18.353Z,1014.52
2022-09-25T00:30:18.503Z,1014.50
2022-09-25T00:31:18.757Z,1014.49
2022-09-25T00:32:18.827Z,1014.48
2022-09-25T00:33:19.023Z,1014.45
2022-09-25T00:34:19.190Z,1014.46
2022-09-25T00:35:19.351Z,1014.43
2022-09-25T00:36:19.525Z,1014.43
2022-09-25T00:37:19.683Z,1014.42
2022-09-25T00:38:19.845Z,1014.42
2022-09-25T00:39:20.007Z,1014.41
2022-09-25T00:40:20.224Z,1014.43
2022-09-25T00:41:20.412Z,1014.42
2022-09-25T00:42:20.534Z,1014.42
2022-09-25T00:43:20.694Z,1014.45
2022-09-25T00:44:20.856Z,1014.42
2022-09-25T00:45:21.014Z,1014.44
2022-09-25T00:46:21.302Z,1014.44
2022-09-25T00:47:21.364Z,1014.41
2022-09-25T00:48:21.564Z,1014.38
2022-09-25T00:49:21.723Z,1014.40
2022-09-25T00:50:21.884Z,1014.39
2022-09-25T00:51:22.064Z,1014.38
2022-09-25T00:52:22.231Z,1014.44
2022-09-25T00:53:22.395Z,1014.39
2022-09-25T00:54:22.587Z,1014.38
2022-09-25T00:55:22.711Z,1014.42
2022-09-25T00:56:22.884Z,1014.38
2022-09-25T00:57:23.044Z,1014.39
2022-09-25T00:58:23.225Z,1014.38
2022-09-25T00:59:23.384Z,1014.39
2022-09-25T01:00:23.543Z,1014.42
2022-09-25T01:01:23.813Z,1014.42
2022-09-25T01:02:23.950Z,1014.43
2022-09-25T01:03:24.074Z,1014.44
2022-09-25T01:04:24.235Z,1014.39
2022-09-25T01:05:24.395Z,1014.42
2022-09-25T01:06:24.574Z,1014.46
2022-09-25T01:07:24.734Z,1014.44
2022-09-25T01:08:24.902Z,1014.46
2022-09-25T01:09:25.054Z,1014.42
2022-09-25T01:10:25.217Z,1014.43
2022-09-25T01:11:25.398Z,1014.41
2022-09-25T01:12:25.563Z,1014.40
2022-09-25T01:13:25.725Z,1014.36
2022-09-25T01:14:25.888Z,1014.37
2022-09-25T01:15:26.045Z,1014.32
2022-09-25T01:16:26.370Z,1014.32
2022-09-25T01:17:26.385Z,1014.31
2022-09-25T01:18:26.583Z,1014.35
2022-09-25T01:19:26.735Z,1014.24
2022-09-25T01:20:26.934Z,1014.28
2022-09-25T01:21:27.103Z,1014.28
2022-09-25T01:22:27.268Z,1014.25
2022-09-25T01:23:27.425Z,1014.26
2022-09-25T01:24:27.592Z,1014.28
2022-09-25T01:25:27.748Z,1014.31
2022-09-25T01:26:27.925Z,1014.32
2022-09-25T01:27:28.084Z,1014.32
2022-09-25T01:28:28.245Z,1014.32
2022-09-25T01:29:28.404Z,1014.29
2022-09-25T01:30:28.626Z,1014.28
2022-09-25T01:31:28.757Z,1014.30
2022-09-25T01:32:28.914Z,1014.28
2022-09-25T01:33:29.073Z,1014.30
2022-09-25T01:34:29.264Z,1014.29
2022-09-25T01:35:29.425Z,1014.27
2022-09-25T01:36:29.605Z,1014.26
2022-09-25T01:37:29.766Z,1014.27
2022-09-25T01:38:29.968Z,1014.27
2022-09-25T01:39:30.122Z,1014.26
2022-09-25T01:40:30.344Z,1014.29
2022-09-25T01:41:30.474Z,1014.28
2022-09-25T01:42:30.636Z,1014.27
2022-09-25T01:43:30.798Z,1014.25
2022-09-25T01:44:30.958Z,1014.27
2022-09-25T01:45:31.114Z,1014.26
2022-09-25T01:46:31.292Z,1014.30
2022-09-25T01:47:31.445Z,1014.26
2022-09-25T01:48:31.645Z,1014.24
2022-09-25T01:49:31.795Z,1014.27
2022-09-25T01:50:31.985Z,1014.25
2022-09-25T01:51:32.163Z,1014.26
2022-09-25T01:52:32.325Z,1014.23
2022-09-25T01:53:32.482Z,1014.23
2022-09-25T01:54:32.675Z,1014.27
2022-09-25T01:55:32.825Z,1014.26
2022-09-25T01:56:33.179Z,1014.25
2022-09-25T01:57:33.176Z,1014.25
2022-09-25T01:58:33.335Z,1014.24
2022-09-25T01:59:33.495Z,1014.24
2022-09-25T02:00:33.662Z,1014.26
2022-09-25T02:01:33.895Z,1014.25
2022-09-25T02:02:34.129Z,1014.23
2022-09-25T02:03:34.149Z,1014.23
2022-09-25T02:04:34.346Z,1014.25
2022-09-25T02:05:34.497Z,1014.25
2022-09-25T02:06:34.715Z,1014.25
2022-09-25T02:07:34.866Z,1014.22
2022-09-25T02:08:35.066Z,1014.24
2022-09-25T02:09:35.222Z,1014.24
2022-09-25T02:10:35.416Z,1014.26
2022-09-25T02:11:35.585Z,1014.24
2022-09-25T02:12:35.745Z,1014.24
2022-09-25T02:13:35.925Z,1014.21
2022-09-25T02:14:36.118Z,1014.27
2022-09-25T02:15:36.275Z,1014.24
2022-09-25T02:16:36.504Z,1014.24
2022-09-25T02:17:36.596Z,1014.23
2022-09-25T02:18:36.755Z,1014.23
2022-09-25T02:19:36.920Z,1014.26
2022-09-25T02:20:37.076Z,1014.20
2022-09-25T02:21:37.255Z,1014.22
2022-09-25T02:22:37.415Z,1014.22
2022-09-25T02:23:37.575Z,1014.19
2022-09-25T02:24:37.735Z,1014.15
2022-09-25T02:25:37.896Z,1014.19
2022-09-25T02:26:38.073Z,1014.18
2022-09-25T02:27:38.235Z,1014.18
2022-09-25T02:28:38.395Z,1014.16
2022-09-25T02:29:38.556Z,1014.12
2022-09-25T02:30:38.805Z,1014.09
2022-09-25T02:31:38.912Z,1014.13
2022-09-25T02:32:39.055Z,1014.14
2022-09-25T02:33:39.217Z,1014.17
2022-09-25T02:34:39.376Z,1014.08
2022-09-25T02:35:39.536Z,1014.08
2022-09-25T02:36:39.715Z,1014.06
2022-09-25T02:37:39.884Z,1014.11
2022-09-25T02:38:40.043Z,1014.07
2022-09-25T02:39:40.198Z,1014.12
2022-09-25T02:40:40.454Z,1014.12
2022-09-25T02:41:40.596Z,1014.12
2022-09-25T02:42:40.755Z,1014.14
2022-09-25T02:43:40.916Z,1014.15
2022-09-25T02:44:41.105Z,1014.16
2022-09-25T02:45:41.296Z,1014.12
2022-09-25T02:46:41.447Z,1014.16
2022-09-25T02:47:41.605Z,1014.09
2022-09-25T02:48:41.805Z,1014.11
2022-09-25T02:49:41.966Z,1014.09
2022-09-25T02:50:42.166Z,1014.12
2022-09-25T02:51:42.337Z,1014.09
2022-09-25T02:52:42.505Z,1014.09
2022-09-25T02:53:42.656Z,1014.08
2022-09-25T02:54:42.824Z,1014.10
2022-09-25T02:55:42.976Z,1014.09
2022-09-25T02:56:43.188Z,1014.10
2022-09-25T02:57:43.346Z,1014.15
2022-09-25T02:58:43.516Z,1014.15
2022-09-25T02:59:43.665Z,1014.19
2022-09-25T03:00:43.856Z,1014.17
2022-09-25T03:01:44.076Z,1014.20
2022-09-25T03:02:48.298Z,1014.18
2022-09-25T03:03:45.376Z,1014.15
2022-09-25T03:04:44.566Z,1014.18
2022-09-25T03:05:44.733Z,1014.14
2022-09-25T03:06:44.934Z,1014.17
2022-09-25T03:07:45.106Z,1014.12
2022-09-25T03:08:45.277Z,1014.17
2022-09-25T03:09:45.436Z,1014.15
2022-09-25T03:10:45.656Z,1014.14
2022-09-25T03:11:45.786Z,1014.13
2022-09-25T03:12:45.976Z,1014.14
2022-09-25T03:13:46.136Z,1014.14
2022-09-25T03:14:46.335Z,1014.16
2022-09-25T03:15:46.506Z,1014.14
2022-09-25T03:16:46.780Z,1014.16
2022-09-25T03:17:46.856Z,1014.12
2022-09-25T03:18:47.017Z,1014.11
2022-09-25T03:19:47.176Z,1014.12
2022-09-25T03:20:47.377Z,1014.12
2022-09-25T03:21:47.558Z,1014.06
2022-09-25T03:22:47.716Z,1014.07
2022-09-25T03:23:47.878Z,1014.11
2022-09-25T03:24:48.069Z,1014.06
2022-09-25T03:25:50.244Z,1014.06
2022-09-25T03:26:48.424Z,1014.05
2022-09-25T03:27:48.576Z,1014.05
2022-09-25T03:28:48.776Z,1014.03
2022-09-25T03:29:48.936Z,1014.01
2022-09-25T03:30:49.159Z,1013.97
2022-09-25T03:31:49.272Z,1014.00
2022-09-25T03:32:49.426Z,1014.01
2022-09-25T03:33:49.596Z,1014.03
2022-09-25T03:34:49.757Z,1014.00
2022-09-25T03:35:49.926Z,1013.96
2022-09-25T03:36:50.097Z,1013.98
2022-09-25T03:37:50.257Z,1013.98
2022-09-25T03:38:50.427Z,1013.99
2022-09-25T03:39:50.577Z,1013.95
2022-09-25T03:40:50.803Z,1013.96
2022-09-25T03:41:50.897Z,1013.95
2022-09-25T03:42:51.075Z,1013.96
2022-09-25T03:43:51.235Z,1013.91
2022-09-25T03:44:51.405Z,1013.94
2022-09-25T03:45:51.659Z,1013.93
2022-09-25T03:46:51.727Z,1013.96
2022-09-25T03:47:51.886Z,1013.93
2022-09-25T03:48:52.047Z,1013.90
2022-09-25T03:49:52.207Z,1013.95
2022-09-25T03:50:52.385Z,1013.94
2022-09-25T03:51:52.548Z,1013.92
2022-09-25T03:52:52.707Z,1013.94
2022-09-25T03:53:52.884Z,1013.93
2022-09-25T03:54:53.045Z,1013.92
2022-09-25T03:55:53.220Z,1013.91
2022-09-25T03:56:53.379Z,1013.88
2022-09-25T03:57:53.537Z,1013.90
2022-09-25T03:58:53.708Z,1013.94
2022-09-25T03:59:53.876Z,1013.90
2022-09-25T04:00:54.136Z,1013.88
2022-09-25T04:01:54.239Z,1013.88
2022-09-25T04:02:54.428Z,1013.91
2022-09-25T04:03:54.547Z,1013.90
2022-09-25T04:04:54.707Z,1013.90
2022-09-25T04:05:54.876Z,1013.93
2022-09-25T04:06:55.047Z,1013.90
2022-09-25T04:07:55.206Z,1013.96
2022-09-25T04:08:55.367Z,1013.94
2022-09-25T04:09:55.525Z,1013.88
2022-09-25T04:10:56.238Z,1013.91
2022-09-25T04:11:55.877Z,1013.99
2022-09-25T04:12:56.077Z,1013.97
2022-09-25T04:13:56.238Z,1013.95
2022-09-25T04:14:56.398Z,1013.95
2022-09-25T04:15:56.633Z,1013.95
2022-09-25T04:16:56.747Z,1013.97
2022-09-25T04:17:56.910Z,1014.00
2022-09-25T04:18:57.067Z,1013.99
2022-09-25T04:19:57.228Z,1013.99
2022-09-25T04:20:57.446Z,1013.99
2022-09-25T04:21:57.578Z,1014.02
2022-09-25T04:22:57.777Z,1014.03
2022-09-25T04:23:57.937Z,1014.01
2022-09-25T04:24:58.097Z,1014.04
2022-09-25T04:25:58.272Z,1014.03
2022-09-25T04:26:58.428Z,1014.07
2022-09-25T04:27:58.601Z,1014.06
2022-09-25T04:28:58.761Z,1014.03
2022-09-25T04:29:58.938Z,1014.05
2022-09-25T04:30:59.259Z,1014.05
2022-09-25T04:31:59.398Z,1014.08
2022-09-25T04:32:59.497Z,1014.08
2022-09-25T04:33:59.661Z,1014.04
2022-09-25T04:34:59.820Z,1014.01
2022-09-25T04:35:59.987Z,1014.01
2022-09-25T04:37:00.157Z,1013.99
2022-09-25T04:38:00.312Z,1014.01
2022-09-25T04:39:00.478Z,1014.01
2022-09-25T04:40:00.649Z,1014.01
2022-09-25T04:41:00.848Z,1013.99
2022-09-25T04:42:00.987Z,1013.99
2022-09-25T04:43:01.172Z,1014.01
2022-09-25T04:44:01.348Z,1014.03
2022-09-25T04:45:01.536Z,1014.04
2022-09-25T04:46:01.830Z,1014.02
2022-09-25T04:47:01.907Z,1014.03
2022-09-25T04:48:02.098Z,1014.06
2022-09-25T04:49:02.281Z,1014.04
2022-09-25T04:50:02.479Z,1014.04
2022-09-25T04:51:02.657Z,1014.05
2022-09-25T04:52:02.799Z,1014.05
2022-09-25T04:53:03.003Z,1014.09
2022-09-25T04:54:03.167Z,1014.05
2022-09-25T04:55:03.357Z,1014.06
2022-09-25T04:56:03.539Z,1014.06
2022-09-25T04:57:03.667Z,1014.05
2022-09-25T04:58:03.858Z,1014.06
2022-09-25T04:59:04.027Z,1014.05
2022-09-25T05:00:04.219Z,1014.07
2022-09-25T05:01:04.462Z,1014.07
2022-09-25T05:02:04.716Z,1014.07
2022-09-25T05:03:04.919Z,1014.07
2022-09-25T05:04:08.503Z,1014.11
2022-09-25T05:05:05.057Z,1014.08
2022-09-25T05:06:05.268Z,1014.10
2022-09-25T05:07:05.408Z,1014.09
2022-09-25T05:08:05.597Z,1014.07
2022-09-25T05:09:05.778Z,1014.06
2022-09-25T05:10:05.992Z,1014.06
2022-09-25T05:11:06.127Z,1014.08
2022-09-25T05:12:06.320Z,1014.07
2022-09-25T05:13:06.508Z,1014.06
2022-09-25T05:14:06.777Z,1014.05
2022-09-25T05:15:06.867Z,1014.05
2022-09-25T05:16:07.103Z,1014.07
2022-09-25T05:17:07.228Z,1014.06
2022-09-25T05:18:07.396Z,1014.12
2022-09-25T05:19:07.568Z,1014.13
2022-09-25T05:20:07.775Z,1014.07
2022-09-25T05:21:07.916Z,1014.10
2022-09-25T05:22:08.106Z,1014.09
2022-09-25T05:23:08.257Z,1014.10
2022-09-25T05:24:08.421Z,1014.11
2022-09-25T05:25:08.618Z,1014.17
2022-09-25T05:26:08.768Z,1014.17
2022-09-25T05:27:08.948Z,1014.15
2022-09-25T05:28:09.149Z,1014.19
2022-09-25T05:29:09.298Z,1014.21
2022-09-25T05:30:09.495Z,1014.21
2022-09-25T05:31:09.725Z,1014.20
2022-09-25T05:32:09.787Z,1014.22
2022-09-25T05:33:09.968Z,1014.20
2022-09-25T05:34:10.187Z,1014.24
2022-09-25T05:35:10.347Z,1014.22
2022-09-25T05:36:10.528Z,1014.24
2022-09-25T05:37:10.718Z,1014.28
2022-09-25T05:38:10.895Z,1014.24
2022-09-25T05:39:14.473Z,1014.27
2022-09-25T05:40:11.319Z,1014.27
2022-09-25T05:41:11.408Z,1014.29
2022-09-25T05:42:11.598Z,1014.28
2022-09-25T05:43:11.778Z,1014.26
2022-09-25T05:44:12.050Z,1014.22
2022-09-25T05:45:12.169Z,1014.23
2022-09-25T05:46:12.418Z,1014.20
2022-09-25T05:47:12.538Z,1014.23
2022-09-25T05:48:12.696Z,1014.22
2022-09-25T05:49:12.887Z,1014.22
2022-09-25T05:50:13.090Z,1014.17
2022-09-25T05:51:13.217Z,1014.13
2022-09-25T05:52:13.397Z,1014.14
2022-09-25T05:53:13.588Z,1014.11
2022-09-25T05:54:13.866Z,1014.14
2022-09-25T05:55:13.927Z,1014.18
2022-09-25T05:56:14.091Z,1014.18
2022-09-25T05:57:14.247Z,1014.14
2022-09-25T05:58:14.465Z,1014.11
2022-09-25T05:59:14.609Z,1014.11
2022-09-25T06:00:14.768Z,1014.09
2022-09-25T06:01:14.928Z,1014.07
2022-09-25T06:02:15.140Z,1014.10
2022-09-25T06:03:15.295Z,1014.06
2022-09-25T06:04:15.428Z,1014.07
2022-09-25T06:05:15.590Z,1014.07
2022-09-25T06:06:15.757Z,1014.07
2022-09-25T06:07:15.919Z,1014.05
2022-09-25T06:08:16.087Z,1014.07
2022-09-25T06:09:16.248Z,1014.08
2022-09-25T06:10:16.447Z,1014.04
2022-09-25T06:11:16.588Z,1014.09
2022-09-25T06:12:16.776Z,1014.08
2022-09-25T06:13:16.958Z,1014.05
2022-09-25T06:14:17.157Z,1014.02
2022-09-25T06:15:17.328Z,1014.05
2022-09-25T06:16:17.549Z,1014.03
2022-09-25T06:17:17.689Z,1014.02
2022-09-25T06:18:17.888Z,1014.04
2022-09-25T06:19:18.059Z,1014.01
2022-09-25T06:20:18.238Z,1014.02
2022-09-25T06:21:18.420Z,1014.00
2022-09-25T06:22:18.611Z,1014.02
2022-09-25T06:23:18.814Z,1013.99
2022-09-25T06:24:18.961Z,1014.03
2022-09-25T06:25:19.138Z,1014.04
2022-09-25T06:26:19.320Z,1014.06
2022-09-25T06:27:19.499Z,1014.06
2022-09-25T06:28:19.700Z,1014.05
2022-09-25T06:29:19.847Z,1014.05
2022-09-25T06:30:20.029Z,1014.08
2022-09-25T06:31:20.294Z,1014.04
2022-09-25T06:32:20.408Z,1014.02
2022-09-25T06:33:20.599Z,1014.03
2022-09-25T06:34:20.752Z,1014.02
2022-09-25T06:35:20.938Z,1014.03
2022-09-25T06:36:21.126Z,1014.07
2022-09-25T06:37:21.299Z,1014.05
2022-09-25T06:38:21.518Z,1014.07
2022-09-25T06:39:21.648Z,1014.09
2022-09-25T06:40:21.967Z,1014.06
2022-09-25T06:41:22.002Z,1014.06
2022-09-25T06:42:22.195Z,1014.08
2022-09-25T06:43:22.388Z,1014.06
2022-09-25T06:44:22.567Z,1014.10
2022-09-25T06:45:22.718Z,1014.06
2022-09-25T06:46:22.939Z,1014.01
2022-09-25T06:47:26.762Z,1014.03
2022-09-25T06:48:23.270Z,1014.02
2022-09-25T06:49:23.439Z,1014.03
2022-09-25T06:50:23.631Z,1014.04
2022-09-25T06:51:23.780Z,1014.00
2022-09-25T06:52:23.960Z,1013.96
2022-09-25T06:53:24.175Z,1013.99
2022-09-25T06:54:24.322Z,1014.03
2022-09-25T06:55:24.458Z,1014.02
2022-09-25T06:56:24.639Z,1014.04
2022-09-25T06:57:24.819Z,1014.04
2022-09-25T06:58:25.030Z,1014.07
2022-09-25T06:59:25.160Z,1014.01
2022-09-25T07:00:25.373Z,1013.98
2022-09-25T07:01:25.616Z,1014.03
2022-09-25T07:02:25.852Z,1014.03
2022-09-25T07:03:25.909Z,1014.08
2022-09-25T07:04:26.059Z,1014.08
2022-09-25T07:05:26.231Z,1014.11
2022-09-25T07:06:26.440Z,1014.09
2022-09-25T07:07:26.569Z,1014.07
2022-09-25T07:08:26.771Z,1014.07
2022-09-25T07:09:26.910Z,1014.08
2022-09-25T07:10:27.098Z,1014.09
2022-09-25T07:11:27.280Z,1014.08
2022-09-25T07:12:27.469Z,1014.06
2022-09-25T07:13:27.712Z,1014.06
2022-09-25T07:14:27.820Z,1014.08
2022-09-25T07:15:28.000Z,1014.09
2022-09-25T07:16:28.245Z,1014.04
2022-09-25T07:17:28.359Z,1014.01
2022-09-25T07:18:28.562Z,1014.05
2022-09-25T07:19:28.700Z,1014.02
2022-09-25T07:20:28.891Z,1014.02
2022-09-25T07:21:29.072Z,1014.05
2022-09-25T07:22:29.268Z,1014.00
2022-09-25T07:23:29.431Z,1014.01
2022-09-25T07:24:29.590Z,1013.96
2022-09-25T07:25:29.775Z,1013.97
2022-09-25T07:26:29.954Z,1013.95
2022-09-25T07:27:30.130Z,1013.97
2022-09-25T07:28:30.330Z,1013.94
2022-09-25T07:29:30.470Z,1013.96
2022-09-25T07:30:30.649Z,1013.94
2022-09-25T07:31:30.885Z,1013.93
2022-09-25T07:32:30.991Z,1013.93
2022-09-25T07:33:31.190Z,1013.91
2022-09-25T07:34:31.342Z,1013.93
2022-09-25T07:35:31.529Z,1013.94
2022-09-25T07:36:31.701Z,1013.96
2022-09-25T07:37:31.892Z,1013.97
2022-09-25T07:38:32.093Z,1013.99
2022-09-25T07:39:32.235Z,1013.98
2022-09-25T07:40:32.453Z,1013.94
2022-09-25T07:41:32.572Z,1013.96
2022-09-25T07:42:33.741Z,1013.92
2022-09-25T07:43:32.930Z,1013.96
2022-09-25T07:44:38.036Z,1013.96
2022-09-25T07:45:34.282Z,1013.93
2022-09-25T07:46:33.525Z,1013.97
2022-09-25T07:47:33.634Z,1013.95
2022-09-25T07:48:33.842Z,1013.97
2022-09-25T07:49:33.981Z,1013.96
2022-09-25T07:50:34.163Z,1013.93
2022-09-25T07:51:34.341Z,1013.98
2022-09-25T07:52:34.522Z,1013.95
2022-09-25T07:53:34.723Z,1013.99
2022-09-25T07:54:34.875Z,1013.92
2022-09-25T07:55:35.051Z,1013.97
2022-09-25T07:56:35.245Z,1013.95
2022-09-25T07:57:35.412Z,1013.92
2022-09-25T07:58:35.834Z,1013.90
2022-09-25T07:59:35.755Z,1013.93
2022-09-25T08:00:35.933Z,1013.91
2022-09-25T08:01:39.662Z,1013.89
2022-09-25T08:02:37.337Z,1013.86
2022-09-25T08:03:36.502Z,1013.81
2022-09-25T08:04:36.644Z,1013.84
2022-09-25T08:05:36.823Z,1013.79
2022-09-25T08:06:37.005Z,1013.77
2022-09-25T08:07:37.183Z,1013.75
2022-09-25T08:08:37.384Z,1013.76
2022-09-25T08:09:37.523Z,1013.80
2022-09-25T08:10:37.705Z,1013.78
2022-09-25T08:11:37.884Z,1013.77
2022-09-25T08:12:38.064Z,1013.72
2022-09-25T08:13:38.259Z,1013.75
2022-09-25T08:14:38.413Z,1013.74
2022-09-25T08:15:38.651Z,1013.73
2022-09-25T08:16:38.773Z,1013.80
2022-09-25T08:17:38.961Z,1013.79
2022-09-25T08:18:39.167Z,1013.78
2022-09-25T08:19:39.294Z,1013.75
2022-09-25T08:20:39.488Z,1013.75
2022-09-25T08:21:39.664Z,1013.74
2022-09-25T08:22:39.850Z,1013.67
2022-09-25T08:23:44.040Z,1013.70
2022-09-25T08:24:41.215Z,1013.70
2022-09-25T08:25:40.385Z,1013.71
2022-09-25T08:26:40.562Z,1013.70
2022-09-25T08:27:40.725Z,1013.71
2022-09-25T08:28:40.924Z,1013.73
2022-09-25T08:29:41.085Z,1013.74
2022-09-25T08:30:41.279Z,1013.70
2022-09-25T08:31:41.456Z,1013.70
2022-09-25T08:32:41.614Z,1013.74
2022-09-25T08:33:41.806Z,1013.69
2022-09-25T08:34:42.176Z,1013.70
2022-09-25T08:35:42.145Z,1013.73
2022-09-25T08:36:42.323Z,1013.70
2022-09-25T08:37:42.485Z,1013.68
2022-09-25T08:38:42.687Z,1013.66
2022-09-25T08:39:42.838Z,1013.62
2022-09-25T08:40:46.367Z,1013.64
2022-09-25T08:41:43.226Z,1013.63
2022-09-25T08:42:43.404Z,1013.60
2022-09-25T08:43:43.617Z,1013.57
2022-09-25T08:45:02.441Z,1013.61
2022-09-25T08:45:44.925Z,1013.64
2022-09-25T08:46:44.161Z,1013.57
2022-09-25T08:47:44.288Z,1013.55
2022-09-25T08:48:44.485Z,1013.54
2022-09-25T08:49:44.617Z,1013.54
2022-09-25T08:50:44.820Z,1013.57
2022-09-25T08:51:45.023Z,1013.55
2022-09-25T08:52:45.156Z,1013.55
2022-09-25T08:53:45.345Z,1013.52
2022-09-25T08:54:45.965Z,1013.61
2022-09-25T08:55:45.678Z,1013.60
2022-09-25T08:56:45.799Z,1013.60
2022-09-25T08:57:45.976Z,1013.62
2022-09-25T08:58:46.159Z,1013.62
2022-09-25T08:59:46.308Z,1013.61
2022-09-25T09:00:46.489Z,1013.62
2022-09-25T09:01:46.709Z,1013.61
2022-09-25T09:02:46.879Z,1013.58
2022-09-25T09:03:46.990Z,1013.62
2022-09-25T09:04:47.153Z,1013.64
2022-09-25T09:05:51.558Z,1013.65
2022-09-25T09:06:53.177Z,1013.62
2022-09-25T09:07:48.642Z,1013.61
2022-09-25T09:08:47.831Z,1013.63
2022-09-25T09:09:47.980Z,1013.62
2022-09-25T09:10:48.151Z,1013.62
2022-09-25T09:11:48.353Z,1013.59
2022-09-25T09:12:48.510Z,1013.57
2022-09-25T09:13:48.691Z,1013.55
2022-09-25T09:14:48.860Z,1013.55
2022-09-25T09:15:49.073Z,1013.55
2022-09-25T09:16:49.200Z,1013.53
2022-09-25T09:17:49.372Z,1013.53
2022-09-25T09:18:49.579Z,1013.49
2022-09-25T09:19:49.720Z,1013.46
2022-09-25T09:20:49.894Z,1013.52
2022-09-25T09:21:50.071Z,1013.50
2022-09-25T09:22:50.242Z,1013.52
2022-09-25T09:23:50.428Z,1013.51
2022-09-25T09:24:50.588Z,1013.50
2022-09-25T09:25:50.752Z,1013.47
2022-09-25T09:26:50.923Z,1013.48
2022-09-25T09:27:51.091Z,1013.48
2022-09-25T09:28:51.283Z,1013.49
2022-09-25T09:29:51.447Z,1013.46
2022-09-25T09:30:51.661Z,1013.48
2022-09-25T09:31:51.782Z,1013.45
2022-09-25T09:32:51.953Z,1013.44
2022-09-25T09:33:52.172Z,1013.47
2022-09-25T09:35:05.817Z,1013.42
2022-09-25T09:35:53.497Z,1013.45
2022-09-25T09:36:52.666Z,1013.42
2022-09-25T09:37:52.840Z,1013.45
2022-09-25T09:38:53.015Z,1013.43
2022-09-25T09:39:53.181Z,1013.44
2022-09-25T09:40:53.423Z,1013.45
2022-09-25T09:41:53.523Z,1013.43
2022-09-25T09:42:53.739Z,1013.43
2022-09-25T09:43:57.681Z,1013.40
2022-09-25T09:44:54.044Z,1013.46
2022-09-25T09:45:54.287Z,1013.45
2022-09-25T09:46:54.404Z,1013.39
2022-09-25T09:47:54.572Z,1013.41
2022-09-25T09:48:54.753Z,1013.40
2022-09-25T09:49:54.912Z,1013.41
2022-09-25T09:50:55.074Z,1013.41
2022-09-25T09:51:55.245Z,1013.40
2022-09-25T09:52:55.424Z,1013.36
2022-09-25T09:53:55.614Z,1013.36
2022-09-25T09:54:55.788Z,1013.33
2022-09-25T09:55:55.945Z,1013.34
2022-09-25T09:56:56.120Z,1013.37
2022-09-25T09:57:56.291Z,1013.38
2022-09-25T09:58:56.482Z,1013.37
2022-09-25T10:00:00.624Z,1013.30
2022-09-25T10:01:01.072Z,1013.33
2022-09-25T10:01:58.069Z,1013.30
2022-09-25T10:02:57.257Z,1013.26
2022-09-25T10:03:57.334Z,1013.26
2022-09-25T10:04:57.492Z,1013.21
2022-09-25T10:05:57.657Z,1013.18
2022-09-25T10:06:57.841Z,1013.22
2022-09-25T10:07:57.997Z,1013.17
2022-09-25T10:08:58.176Z,1013.15
2022-09-25T10:09:58.337Z,1013.13
2022-09-25T10:10:58.496Z,1013.12
2022-09-25T10:11:58.670Z,1013.12
2022-09-25T10:13:00.867Z,1013.16
2022-09-25T10:14:00.007Z,1013.13
2022-09-25T10:14:59.185Z,1013.12
2022-09-25T10:15:59.381Z,1013.10
2022-09-25T10:16:59.527Z,1013.13
2022-09-25T10:17:59.705Z,1013.11
2022-09-25T10:18:59.877Z,1013.08
2022-09-25T10:20:00.048Z,1013.13
2022-09-25T10:21:00.212Z,1013.11
2022-09-25T10:22:00.378Z,1013.10
2022-09-25T10:23:00.565Z,1013.08
2022-09-25T10:24:00.726Z,1013.08
2022-09-25T10:25:00.889Z,1013.09
2022-09-25T10:26:01.071Z,1013.09
2022-09-25T10:27:01.219Z,1013.07
2022-09-25T10:28:01.435Z,1013.05
2022-09-25T10:29:01.579Z,1013.04
2022-09-25T10:30:01.776Z,1013.00
2022-09-25T10:31:01.988Z,1013.02
2022-09-25T10:32:02.080Z,1013.06
2022-09-25T10:33:02.261Z,1013.04
2022-09-25T10:34:02.421Z,1013.06
2022-09-25T10:35:02.582Z,1013.08
2022-09-25T10:36:02.751Z,1013.06
2022-09-25T10:37:02.933Z,1013.08
2022-09-25T10:38:03.130Z,1013.08
2022-09-25T10:39:24.460Z,1013.08
2022-09-25T10:40:04.473Z,1013.02
2022-09-25T10:41:03.653Z,1013.06
2022-09-25T10:42:03.843Z,1013.03
2022-09-25T10:43:04.031Z,1013.02
2022-09-25T10:44:04.274Z,1013.01
2022-09-25T10:45:04.401Z,1012.99
2022-09-25T10:46:04.687Z,1013.03
2022-09-25T10:47:04.754Z,1013.02
2022-09-25T10:48:04.952Z,1013.01
2022-09-25T10:49:05.182Z,1012.98
2022-09-25T10:50:05.293Z,1012.99
2022-09-25T10:51:05.474Z,1012.98
2022-09-25T10:52:05.672Z,1012.98
2022-09-25T10:53:05.873Z,1012.97
2022-09-25T10:54:06.009Z,1012.98
2022-09-25T10:55:06.186Z,1012.99
2022-09-25T10:56:06.372Z,1012.99
2022-09-25T10:57:06.551Z,1013.02
2022-09-25T10:58:06.742Z,1013.00
2022-09-25T10:59:06.883Z,1013.02
2022-09-25T11:00:07.074Z,1013.00
2022-09-25T11:01:07.319Z,1012.98
2022-09-25T11:02:07.577Z,1012.97
2022-09-25T11:03:11.222Z,1012.99
2022-09-25T11:04:08.794Z,1013.01
2022-09-25T11:05:07.983Z,1013.01
2022-09-25T11:06:08.166Z,1013.02
2022-09-25T11:07:08.344Z,1013.02
2022-09-25T11:08:08.545Z,1013.04
2022-09-25T11:09:08.776Z,1013.04
2022-09-25T11:10:08.885Z,1012.99
2022-09-25T11:11:09.065Z,1013.00
2022-09-25T11:12:09.246Z,1012.96
2022-09-25T11:13:09.424Z,1012.98
2022-09-25T11:14:09.607Z,1012.97
2022-09-25T11:15:09.745Z,1012.99
2022-09-25T11:16:09.918Z,1012.99
2022-09-25T11:17:10.083Z,1012.96
2022-09-25T11:18:10.277Z,1012.95
2022-09-25T11:19:10.448Z,1012.95
2022-09-25T11:20:10.588Z,1012.97
2022-09-25T11:21:10.736Z,1012.97
2022-09-25T11:22:10.912Z,1012.93
2022-09-25T11:23:11.086Z,1012.95
2022-09-25T11:24:11.267Z,1012.93
2022-09-25T11:25:11.405Z,1012.92
2022-09-25T11:26:11.592Z,1012.88
2022-09-25T11:27:11.751Z,1012.89
2022-09-25T11:28:11.957Z,1012.86
2022-09-25T11:29:12.307Z,1012.85
2022-09-25T11:30:12.499Z,1012.82
2022-09-25T11:31:12.505Z,1012.79
2022-09-25T11:32:12.655Z,1012.78
2022-09-25T11:33:12.849Z,1012.79
2022-09-25T11:34:12.988Z,1012.80
2022-09-25T11:35:13.180Z,1012.74
2022-09-25T11:36:13.369Z,1012.77
2022-09-25T11:37:13.536Z,1012.71
2022-09-25T11:38:13.740Z,1012.66
2022-09-25T11:39:14.079Z,1012.66
2022-09-25T11:40:14.206Z,1012.66
2022-09-25T11:41:14.228Z,1012.69
2022-09-25T11:42:14.443Z,1012.66
2022-09-25T11:43:14.587Z,1012.65
2022-09-25T11:44:14.737Z,1012.63
2022-09-25T11:45:14.908Z,1012.62
2022-09-25T11:46:15.118Z,1012.59
2022-09-25T11:47:15.257Z,1012.61
2022-09-25T11:48:15.467Z,1012.57
2022-09-25T11:49:15.944Z,1012.58
2022-09-25T11:50:15.800Z,1012.57
2022-09-25T11:51:15.969Z,1012.54
2022-09-25T11:52:16.148Z,1012.51
2022-09-25T11:53:16.367Z,1012.48
2022-09-25T11:54:32.365Z,1012.50
2022-09-25T11:55:17.658Z,1012.46
2022-09-25T11:56:16.850Z,1012.48
2022-09-25T11:57:17.036Z,1012.47
2022-09-25T11:58:17.230Z,1012.40
2022-09-25T11:59:17.377Z,1012.45
2022-09-25T12:00:17.563Z,1012.43
2022-09-25T12:01:17.773Z,1012.42
2022-09-25T12:02:17.904Z,1012.42
2022-09-25T12:03:18.108Z,1012.37
2022-09-25T12:04:19.231Z,1012.37
2022-09-25T12:05:18.393Z,1012.38
2022-09-25T12:06:18.592Z,1012.41
2022-09-25T12:07:18.762Z,1012.40